Time;durP1;ratioP1;P1;durP2;ratioP2;P2;SDS_P1;SDS_P2;PMS_P1;PMS_P2;Temp;Humidity;BMP_temperature;BMP_pressure;BME280_temperature;BME280_humidity;BME280_pressure;Samples;Min_cycle;Max_cycle;Signal;HPM_P1;HPM_P2
2022/10/18 00:02:15;;;;;;;10.10;6.88;;;;;;;;;;5094896;28;20036;-71
2022/10/18 00:04:41;;;;;;;10.57;6.82;;;;;;;;;;5090839;28;20465;-71
2022/10/18 00:07:08;;;;;;;12.10;6.93;;;;;;;;;;5107592;28;20056;-71
2022/10/18 00:09:34;;;;;;;11.13;6.97;;;;;;;;;;5099169;28;20066;-73
2022/10/18 00:12:00;;;;;;;10.77;6.63;;;;;;;;;;5095050;28;20115;-72
2022/10/18 00:14:26;;;;;;;13.75;8.10;;;;;;;;;;5100964;28;20491;-73
2022/10/18 00:16:52;;;;;;;10.63;7.10;;;;;;;;;;5116928;28;20032;-72
2022/10/18 00:19:18;;;;;;;11.70;7.22;;;;;;;;;;5099177;28;20048;-73
2022/10/18 00:21:44;;;;;;;11.02;7.15;;;;;;;;;;5095431;28;20035;-72
2022/10/18 00:24:11;;;;;;;13.25;6.95;;;;;;;;;;5106061;28;20020;-72
2022/10/18 00:26:37;;;;;;;11.00;7.63;;;;;;;;;;5099093;28;20024;-72
2022/10/18 00:29:04;;;;;;;12.13;7.57;;;;;;;;;;5088438;28;20028;-73
2022/10/18 00:31:32;;;;;;;14.32;7.05;;;;;;;;;;5096536;28;20146;-72
2022/10/18 00:34:00;;;;;;;12.25;6.68;;;;;;;;;;5116531;28;20030;-72
2022/10/18 00:36:27;;;;;;;11.23;7.00;;;;;;;;;;5097787;28;20040;-72
2022/10/18 00:38:53;;;;;;;13.68;7.75;;;;;;;;;;5101852;28;20411;-72
2022/10/18 00:41:22;;;;;;;12.65;7.53;;;;;;;;;;5095905;28;20126;-73
2022/10/18 00:44:00;;;;;;;10.32;6.97;;;;;;;;;;5097130;28;20021;-72
2022/10/18 00:46:28;;;;;;;12.13;6.90;;;;;;;;;;5095947;28;20016;-72
2022/10/18 00:48:55;;;;;;;11.40;6.90;;;;;;;;;;5106564;28;20476;-71
2022/10/18 00:51:21;;;;;;;10.10;6.80;;;;;;;;;;5103618;28;20031;-72
2022/10/18 00:53:48;;;;;;;9.85;6.65;;;;;;;;;;5096648;28;20065;-73
2022/10/18 00:56:14;;;;;;;15.00;6.55;;;;;;;;;;5104692;28;20541;-72
2022/10/18 00:58:42;;;;;;;11.77;7.35;;;;;;;;;;5100142;28;20511;-72
2022/10/18 01:01:08;;;;;;;10.25;7.10;;;;;;;;;;5109744;28;20063;-71
2022/10/18 01:03:34;;;;;;;12.23;7.28;;;;;;;;;;5100972;28;20095;-72
2022/10/18 01:06:00;;;;;;;8.90;6.78;;;;;;;;;;5101374;28;20117;-72
2022/10/18 01:08:26;;;;;;;10.95;6.93;;;;;;;;;;5102885;28;20132;-72
2022/10/18 01:11:04;;;;;;;12.70;6.97;;;;;;;;;;5099401;28;20103;-73
2022/10/18 01:13:33;;;;;;;13.27;7.20;;;;;;;;;;5095007;28;20062;-72
2022/10/18 01:16:09;;;;;;;12.75;7.18;;;;;;;;;;5099747;28;20441;-72
2022/10/18 01:18:41;;;;;;;11.10;7.10;;;;;;;;;;5116165;28;20373;-72
2022/10/18 01:21:10;;;;;;;11.63;6.93;;;;;;;;;;5100502;28;20060;-71
2022/10/18 01:23:39;;;;;;;10.48;6.55;;;;;;;;;;5105814;28;20496;-72
2022/10/18 01:26:24;;;;;;;11.48;7.03;;;;;;;;;;5108019;28;20038;-72
2022/10/18 01:28:56;;;;;;;11.60;7.45;;;;;;;;;;5101442;28;20089;-72
2022/10/18 01:31:24;;;;;;;14.13;6.97;;;;;;;;;;5097777;28;20016;-73
2022/10/18 01:33:57;;;;;;;10.60;6.47;;;;;;;;;;5109080;28;20063;-73
2022/10/18 01:36:25;;;;;;;11.18;6.88;;;;;;;;;;5115309;28;20028;-72
2022/10/18 01:38:53;;;;;;;11.40;6.60;;;;;;;;;;5082170;28;20103;-71
2022/10/18 01:41:21;;;;;;;10.75;7.28;;;;;;;;;;5095096;28;20035;-72
2022/10/18 01:43:49;;;;;;;10.65;6.93;;;;;;;;;;5103661;28;20222;-72
2022/10/18 01:46:18;;;;;;;10.63;6.55;;;;;;;;;;5106263;28;20031;-72
2022/10/18 01:48:44;;;;;;;10.60;6.97;;;;;;;;;;5115244;28;20027;-72
2022/10/18 01:51:10;;;;;;;10.75;6.93;;;;;;;;;;5109394;28;20677;-70
2022/10/18 01:53:36;;;;;;;11.20;7.18;;;;;;;;;;5105894;28;20036;-72
2022/10/18 01:56:20;;;;;;;13.38;7.57;;;;;;;;;;5096030;28;20024;-72
2022/10/18 01:59:02;;;;;;;9.88;7.25;;;;;;;;;;5111208;28;20023;-72
2022/10/18 02:01:28;;;;;;;11.30;7.40;;;;;;;;;;5109186;28;20059;-72
2022/10/18 02:03:56;;;;;;;11.98;7.68;;;;;;;;;;5097325;28;20145;-72
2022/10/18 02:06:26;;;;;;;11.60;7.88;;;;;;;;;;5103121;28;20031;-72
2022/10/18 02:08:57;;;;;;;12.73;7.32;;;;;;;;;;5099378;28;20020;-71
2022/10/18 02:11:23;;;;;;;13.68;7.85;;;;;;;;;;5099021;28;20031;-72
2022/10/18 02:13:54;;;;;;;13.68;6.63;;;;;;;;;;5099150;28;20103;-73
2022/10/18 02:16:26;;;;;;;12.70;7.88;;;;;;;;;;5100182;28;20086;-72
2022/10/18 02:18:58;;;;;;;11.05;7.40;;;;;;;;;;5114548;28;20015;-72
2022/10/18 02:21:25;;;;;;;10.55;7.93;;;;;;;;;;5098462;28;20047;-72
2022/10/18 02:23:51;;;;;;;12.77;7.43;;;;;;;;;;5101161;28;20051;-72
2022/10/18 02:26:18;;;;;;;12.93;7.22;;;;;;;;;;5108824;28;20544;-72
2022/10/18 02:28:44;;;;;;;11.13;7.30;;;;;;;;;;5094124;28;20024;-72
2022/10/18 02:31:17;;;;;;;11.48;7.53;;;;;;;;;;5090923;28;20036;-72
2022/10/18 02:34:03;;;;;;;13.15;7.20;;;;;;;;;;5103907;28;20026;-72
2022/10/18 02:36:43;;;;;;;14.88;7.80;;;;;;;;;;5092047;28;20056;-73
2022/10/18 02:39:14;;;;;;;13.07;8.10;;;;;;;;;;5095642;28;20028;-72
2022/10/18 02:41:40;;;;;;;13.55;7.55;;;;;;;;;;5099224;28;20042;-72
2022/10/18 02:44:06;;;;;;;9.55;7.43;;;;;;;;;;5114364;28;20024;-72
2022/10/18 02:46:33;;;;;;;16.63;8.00;;;;;;;;;;5112244;28;20032;-72
2022/10/18 02:48:59;;;;;;;12.18;7.90;;;;;;;;;;5113919;28;20055;-72
2022/10/18 02:51:25;;;;;;;12.10;7.22;;;;;;;;;;5111156;28;20034;-72
2022/10/18 02:53:51;;;;;;;11.18;7.75;;;;;;;;;;5091070;28;20035;-72
2022/10/18 02:56:17;;;;;;;11.90;8.05;;;;;;;;;;5094174;28;20020;-72
2022/10/18 02:58:44;;;;;;;12.90;7.38;;;;;;;;;;5100013;28;20039;-72
2022/10/18 03:01:10;;;;;;;9.60;7.45;;;;;;;;;;5104036;28;20086;-72
2022/10/18 03:03:36;;;;;;;14.52;7.50;;;;;;;;;;5091838;28;20055;-72
2022/10/18 03:06:02;;;;;;;14.85;8.05;;;;;;;;;;5098963;28;20020;-72
2022/10/18 03:08:28;;;;;;;13.15;8.52;;;;;;;;;;5105372;28;20467;-72
2022/10/18 03:10:54;;;;;;;11.90;8.00;;;;;;;;;;5113641;28;20015;-73
2022/10/18 03:13:20;;;;;;;17.23;8.70;;;;;;;;;;5107621;28;20028;-71
2022/10/18 03:15:47;;;;;;;11.30;7.50;;;;;;;;;;5105914;28;20069;-71
2022/10/18 03:18:13;;;;;;;12.40;7.97;;;;;;;;;;5092769;28;20056;-72
2022/10/18 03:20:39;;;;;;;13.45;8.40;;;;;;;;;;5091773;28;20553;-73
2022/10/18 03:23:06;;;;;;;14.65;9.15;;;;;;;;;;5099708;28;20034;-73
2022/10/18 03:25:32;;;;;;;14.38;9.10;;;;;;;;;;5094319;28;20047;-73
2022/10/18 03:27:58;;;;;;;13.25;8.57;;;;;;;;;;5093916;28;20024;-72
2022/10/18 03:30:24;;;;;;;12.45;9.20;;;;;;;;;;5101484;28;20378;-72
2022/10/18 03:32:50;;;;;;;19.42;9.43;;;;;;;;;;5095271;28;20491;-72
2022/10/18 03:35:17;;;;;;;17.08;9.48;;;;;;;;;;5102040;28;20023;-72
2022/10/18 03:37:43;;;;;;;14.57;9.30;;;;;;;;;;5094278;28;20085;-72
2022/10/18 03:40:09;;;;;;;14.32;9.18;;;;;;;;;;5095031;28;20028;-72
2022/10/18 03:42:35;;;;;;;13.98;9.45;;;;;;;;;;5112892;28;20034;-72
2022/10/18 03:45:01;;;;;;;13.80;9.43;;;;;;;;;;5106162;28;20067;-72
2022/10/18 03:47:27;;;;;;;15.27;9.80;;;;;;;;;;5105838;28;20073;-71
2022/10/18 03:49:53;;;;;;;17.20;9.88;;;;;;;;;;5094031;28;20016;-72
2022/10/18 03:52:19;;;;;;;16.73;9.70;;;;;;;;;;5091028;28;20024;-72
2022/10/18 03:54:45;;;;;;;15.57;9.68;;;;;;;;;;5104220;28;20030;-71
2022/10/18 03:57:11;;;;;;;15.65;9.40;;;;;;;;;;5094534;28;20350;-71
2022/10/18 03:59:37;;;;;;;15.63;9.75;;;;;;;;;;5099313;28;20457;-72
2022/10/18 04:02:03;;;;;;;12.80;8.82;;;;;;;;;;5096198;28;20040;-72
2022/10/18 04:04:29;;;;;;;13.80;9.18;;;;;;;;;;5095007;28;20049;-72
2022/10/18 04:06:55;;;;;;;19.52;9.98;;;;;;;;;;5105896;28;20055;-73
2022/10/18 04:09:21;;;;;;;16.40;9.20;;;;;;;;;;5095230;28;20059;-72
2022/10/18 04:11:49;;;;;;;14.73;10.20;;;;;;;;;;5100085;28;20090;-70
2022/10/18 04:14:15;;;;;;;16.05;9.73;;;;;;;;;;5096251;28;20019;-72
2022/10/18 04:16:41;;;;;;;15.20;10.35;;;;;;;;;;5107268;28;20038;-71
2022/10/18 04:19:08;;;;;;;20.10;10.32;;;;;;;;;;5097528;28;20020;-72
2022/10/18 04:21:34;;;;;;;22.17;9.90;;;;;;;;;;5085450;28;20120;-73
2022/10/18 04:24:00;;;;;;;12.98;9.98;;;;;;;;;;5094227;28;20099;-71
2022/10/18 04:26:26;;;;;;;15.75;9.90;;;;;;;;;;5086862;28;20357;-71
2022/10/18 04:28:52;;;;;;;16.20;9.70;;;;;;;;;;5090028;28;20417;-72
2022/10/18 04:31:18;;;;;;;19.77;9.70;;;;;;;;;;5094843;28;20444;-71
2022/10/18 04:33:44;;;;;;;13.57;8.60;;;;;;;;;;5095017;28;20366;-72
2022/10/18 04:36:10;;;;;;;14.85;9.07;;;;;;;;;;5093125;28;20082;-71
2022/10/18 04:38:36;;;;;;;13.15;9.23;;;;;;;;;;5088952;28;20383;-72
2022/10/18 04:41:02;;;;;;;15.15;9.35;;;;;;;;;;5072182;28;20032;-73
2022/10/18 04:43:28;;;;;;;12.77;9.10;;;;;;;;;;5092155;28;20052;-73
2022/10/18 04:45:54;;;;;;;15.63;9.57;;;;;;;;;;5100790;28;20534;-72
2022/10/18 04:48:20;;;;;;;13.90;9.05;;;;;;;;;;5096107;28;20426;-73
2022/10/18 04:50:53;;;;;;;14.18;8.40;;;;;;;;;;5088415;28;20020;-72
2022/10/18 04:53:19;;;;;;;15.85;9.38;;;;;;;;;;5093850;28;20027;-72
2022/10/18 04:55:47;;;;;;;17.25;10.02;;;;;;;;;;5107113;28;20028;-73
2022/10/18 04:58:13;;;;;;;16.25;9.65;;;;;;;;;;5099129;28;20357;-73
2022/10/18 05:00:39;;;;;;;13.63;9.75;;;;;;;;;;5100842;28;20376;-71
2022/10/18 05:03:06;;;;;;;15.10;10.75;;;;;;;;;;5100547;28;20032;-72
2022/10/18 05:05:35;;;;;;;14.13;10.15;;;;;;;;;;5108049;28;20035;-73
2022/10/18 05:08:01;;;;;;;14.13;9.43;;;;;;;;;;5115626;28;20101;-71
2022/10/18 05:10:27;;;;;;;20.08;9.57;;;;;;;;;;5095113;28;20035;-72
2022/10/18 05:12:53;;;;;;;17.05;9.48;;;;;;;;;;5101335;28;20019;-70
2022/10/18 05:15:19;;;;;;;16.73;9.25;;;;;;;;;;5101659;28;20024;-73
2022/10/18 05:17:45;;;;;;;14.32;9.55;;;;;;;;;;5095653;28;20101;-72
2022/10/18 05:20:11;;;;;;;15.70;9.45;;;;;;;;;;5099887;28;20484;-73
2022/10/18 05:22:37;;;;;;;15.45;9.52;;;;;;;;;;5111178;28;20040;-71
2022/10/18 05:25:03;;;;;;;17.40;7.60;;;;;;;;;;5106406;28;20028;-71
2022/10/18 05:27:29;;;;;;;17.05;9.82;;;;;;;;;;5110317;28;20501;-72
2022/10/18 05:29:55;;;;;;;16.20;8.18;;;;;;;;;;5100792;28;20034;-71
2022/10/18 05:32:21;;;;;;;12.43;8.05;;;;;;;;;;5099913;28;20040;-71
2022/10/18 05:34:47;;;;;;;15.00;8.02;;;;;;;;;;5091573;28;20020;-71
2022/10/18 05:37:13;;;;;;;11.82;7.03;;;;;;;;;;5089282;28;20036;-72
2022/10/18 05:39:39;;;;;;;13.60;7.35;;;;;;;;;;5093055;28;20456;-72
2022/10/18 05:42:13;;;;;;;16.80;7.20;;;;;;;;;;5108560;28;20397;-71
2022/10/18 05:44:39;;;;;;;11.98;6.55;;;;;;;;;;5093429;28;20449;-72
2022/10/18 05:47:06;;;;;;;14.80;7.13;;;;;;;;;;5105141;28;20063;-72
2022/10/18 05:49:35;;;;;;;9.85;6.22;;;;;;;;;;5103253;28;20513;-76
2022/10/18 05:52:01;;;;;;;11.77;7.22;;;;;;;;;;5098397;28;20031;-73
2022/10/18 05:54:27;;;;;;;25.08;7.43;;;;;;;;;;5099141;28;20028;-73
2022/10/18 05:56:53;;;;;;;15.63;7.32;;;;;;;;;;5101066;28;20498;-71
2022/10/18 05:59:19;;;;;;;11.57;6.60;;;;;;;;;;5100197;28;21705;-73
2022/10/18 06:01:45;;;;;;;11.70;5.95;;;;;;;;;;5106639;28;20031;-73
2022/10/18 06:04:11;;;;;;;11.57;6.40;;;;;;;;;;5097264;28;20051;-73
2022/10/18 06:06:38;;;;;;;18.95;6.70;;;;;;;;;;5097600;28;20051;-73
2022/10/18 06:09:06;;;;;;;12.85;6.57;;;;;;;;;;5094791;28;20023;-73
2022/10/18 06:11:32;;;;;;;10.82;6.65;;;;;;;;;;5105107;28;20067;-73
2022/10/18 06:14:04;;;;;;;9.90;6.82;;;;;;;;;;5094944;28;20036;-72
2022/10/18 06:16:30;;;;;;;14.60;6.32;;;;;;;;;;5103744;28;20036;-74
2022/10/18 06:18:58;;;;;;;16.83;7.15;;;;;;;;;;5091988;28;20024;-73
2022/10/18 06:21:25;;;;;;;16.20;6.93;;;;;;;;;;5089398;28;20040;-73
2022/10/18 06:23:51;;;;;;;23.65;7.70;;;;;;;;;;5100246;28;20064;-73
2022/10/18 06:26:17;;;;;;;12.07;7.43;;;;;;;;;;5094462;28;20032;-71
2022/10/18 06:28:44;;;;;;;15.07;7.80;;;;;;;;;;5091377;28;20032;-73
2022/10/18 06:31:10;;;;;;;13.63;7.78;;;;;;;;;;5071164;28;20039;-70
2022/10/18 06:33:36;;;;;;;20.67;8.40;;;;;;;;;;5092832;28;20023;-71
2022/10/18 06:36:04;;;;;;;13.98;7.82;;;;;;;;;;5099798;28;20452;-71
2022/10/18 06:38:30;;;;;;;11.93;7.65;;;;;;;;;;5095434;28;20106;-71
2022/10/18 06:40:57;;;;;;;14.77;8.10;;;;;;;;;;5096484;28;20054;-71
2022/10/18 06:43:23;;;;;;;11.43;7.72;;;;;;;;;;5095736;28;20028;-71
2022/10/18 06:45:49;;;;;;;10.48;7.07;;;;;;;;;;5094685;28;20031;-71
2022/10/18 06:48:16;;;;;;;14.77;8.82;;;;;;;;;;5092481;28;20034;-72
2022/10/18 06:50:42;;;;;;;9.85;7.40;;;;;;;;;;5104249;28;20423;-71
2022/10/18 06:53:08;;;;;;;12.98;7.07;;;;;;;;;;5091716;28;20020;-73
2022/10/18 06:55:35;;;;;;;12.38;7.60;;;;;;;;;;5095170;28;20034;-72
2022/10/18 06:58:01;;;;;;;13.18;7.03;;;;;;;;;;5104620;28;20078;-71
2022/10/18 07:00:27;;;;;;;9.85;6.55;;;;;;;;;;5099332;28;20036;-71
2022/10/18 07:02:57;;;;;;;11.88;7.57;;;;;;;;;;5100726;28;20027;-73
2022/10/18 07:05:23;;;;;;;12.15;6.60;;;;;;;;;;5082682;28;20040;-72
2022/10/18 07:07:49;;;;;;;14.18;8.63;;;;;;;;;;5113635;28;20047;-74
2022/10/18 07:10:16;;;;;;;10.98;6.50;;;;;;;;;;5104326;28;20038;-72
2022/10/18 07:12:42;;;;;;;8.57;6.70;;;;;;;;;;5093722;28;20028;-72
2022/10/18 07:15:09;;;;;;;14.68;6.72;;;;;;;;;;5104024;28;20023;-72
2022/10/18 07:17:35;;;;;;;12.98;7.50;;;;;;;;;;5110795;28;20410;-73
2022/10/18 07:20:03;;;;;;;15.52;7.30;;;;;;;;;;5111530;28;20019;-73
2022/10/18 07:22:29;;;;;;;10.32;7.40;;;;;;;;;;5094610;28;20028;-73
2022/10/18 07:24:55;;;;;;;9.75;7.45;;;;;;;;;;5096892;28;20023;-73
2022/10/18 07:27:21;;;;;;;36.28;17.92;;;;;;;;;;5098331;28;20028;-73
2022/10/18 07:29:48;;;;;;;12.27;7.13;;;;;;;;;;5094859;28;20046;-73
2022/10/18 07:32:14;;;;;;;7.38;6.30;;;;;;;;;;5076451;28;20106;-73
2022/10/18 07:34:40;;;;;;;14.65;7.00;;;;;;;;;;5087045;28;20062;-73
2022/10/18 07:37:06;;;;;;;14.13;6.85;;;;;;;;;;5101867;28;20028;-72
2022/10/18 07:39:32;;;;;;;7.72;6.78;;;;;;;;;;5099937;28;20094;-74
2022/10/18 07:41:58;;;;;;;9.43;6.63;;;;;;;;;;5101356;28;20027;-74
2022/10/18 07:44:24;;;;;;;12.68;6.60;;;;;;;;;;5089229;28;20020;-75
2022/10/18 07:46:51;;;;;;;12.55;7.20;;;;;;;;;;5095702;28;20031;-73
2022/10/18 07:49:47;;;;;;;11.00;6.82;;;;;;;;;;5077556;28;20024;-75
2022/10/18 07:52:14;;;;;;;8.60;6.65;;;;;;;;;;5113845;28;20023;-75
2022/10/18 07:54:40;;;;;;;9.88;6.85;;;;;;;;;;5092539;28;20032;-75
2022/10/18 07:57:06;;;;;;;10.60;6.97;;;;;;;;;;5107888;28;20095;-72
2022/10/18 07:59:32;;;;;;;10.38;6.43;;;;;;;;;;5089012;28;20036;-73
2022/10/18 08:01:58;;;;;;;7.32;6.43;;;;;;;;;;5090039;28;20033;-73
2022/10/18 08:04:24;;;;;;;11.05;7.60;;;;;;;;;;5104806;28;20543;-72
2022/10/18 08:06:50;;;;;;;10.73;6.63;;;;;;;;;;5093474;28;20136;-73
2022/10/18 08:09:16;;;;;;;13.23;7.32;;;;;;;;;;5097169;28;20039;-74
2022/10/18 08:11:43;;;;;;;10.18;6.85;;;;;;;;;;5093519;28;20028;-75
2022/10/18 08:14:09;;;;;;;9.13;6.70;;;;;;;;;;5092297;28;20095;-73
2022/10/18 08:16:35;;;;;;;13.77;6.80;;;;;;;;;;5089090;28;20469;-73
2022/10/18 08:19:05;;;;;;;10.18;6.93;;;;;;;;;;5093601;28;20028;-75
2022/10/18 08:21:31;;;;;;;10.95;5.75;;;;;;;;;;5095567;28;20032;-72
2022/10/18 08:24:03;;;;;;;11.13;5.55;;;;;;;;;;5097400;28;20687;-73
2022/10/18 08:26:29;;;;;;;11.95;5.63;;;;;;;;;;5096107;28;20061;-71
2022/10/18 08:28:55;;;;;;;11.00;5.82;;;;;;;;;;5100997;28;20024;-71
2022/10/18 08:31:21;;;;;;;12.30;5.68;;;;;;;;;;5075101;28;20051;-73
2022/10/18 08:33:51;;;;;;;10.25;5.22;;;;;;;;;;5095695;28;20048;-73
2022/10/18 08:36:17;;;;;;;15.55;6.18;;;;;;;;;;5095179;28;20036;-74
2022/10/18 08:38:52;;;;;;;11.65;5.78;;;;;;;;;;5103203;28;20040;-75
2022/10/18 08:41:25;;;;;;;10.35;5.50;;;;;;;;;;5093733;28;20405;-72
2022/10/18 08:44:12;;;;;;;12.18;5.72;;;;;;;;;;5102778;28;20036;-73
2022/10/18 08:46:41;;;;;;;12.57;5.35;;;;;;;;;;5094400;28;20549;-72
2022/10/18 08:49:11;;;;;;;12.10;6.00;;;;;;;;;;5102293;28;20024;-74
2022/10/18 08:51:45;;;;;;;11.77;5.43;;;;;;;;;;5066341;28;20032;-74
2022/10/18 08:54:13;;;;;;;12.07;6.15;;;;;;;;;;5091538;28;20032;-73
2022/10/18 08:56:41;;;;;;;16.40;6.00;;;;;;;;;;5097118;28;20486;-75
2022/10/18 08:59:12;;;;;;;14.32;5.55;;;;;;;;;;5094955;28;20131;-75
2022/10/18 09:01:47;;;;;;;12.38;5.88;;;;;;;;;;5097539;28;20043;-72
2022/10/18 09:04:28;;;;;;;8.80;5.90;;;;;;;;;;5095244;28;20028;-71
2022/10/18 09:07:03;;;;;;;12.63;5.85;;;;;;;;;;5098394;28;20052;-72
2022/10/18 09:09:44;;;;;;;11.63;5.60;;;;;;;;;;5097948;28;20052;-72
2022/10/18 09:12:30;;;;;;;7.28;5.30;;;;;;;;;;5105492;28;20027;-73
2022/10/18 09:15:15;;;;;;;14.90;7.22;;;;;;;;;;5110487;28;20023;-71
2022/10/18 09:18:04;;;;;;;14.43;5.95;;;;;;;;;;5097803;28;20031;-72
2022/10/18 09:20:49;;;;;;;7.93;5.35;;;;;;;;;;5093916;28;20031;-73
2022/10/18 09:23:15;;;;;;;11.27;6.05;;;;;;;;;;5088511;28;20093;-75
2022/10/18 09:25:46;;;;;;;9.25;5.68;;;;;;;;;;5104268;28;20024;-74
2022/10/18 09:28:22;;;;;;;12.52;5.95;;;;;;;;;;5097714;28;20020;-72
2022/10/18 09:31:00;;;;;;;10.85;5.90;;;;;;;;;;5094081;28;20470;-73
2022/10/18 09:33:26;;;;;;;14.93;5.95;;;;;;;;;;5086411;28;20358;-72
2022/10/18 09:35:55;;;;;;;12.15;7.15;;;;;;;;;;5090150;28;20020;-73
2022/10/18 09:38:30;;;;;;;14.05;6.80;;;;;;;;;;5095928;28;20105;-73
2022/10/18 09:41:12;;;;;;;17.48;5.53;;;;;;;;;;5099571;28;20073;-73
2022/10/18 09:43:45;;;;;;;10.40;6.85;;;;;;;;;;5100074;28;20027;-73
2022/10/18 09:46:11;;;;;;;21.23;7.60;;;;;;;;;;5105488;28;20027;-72
2022/10/18 09:48:43;;;;;;;13.63;6.05;;;;;;;;;;5107457;28;20028;-72
2022/10/18 09:51:12;;;;;;;10.85;6.00;;;;;;;;;;5092060;28;20024;-73
2022/10/18 09:53:44;;;;;;;10.77;6.15;;;;;;;;;;5108268;28;20468;-73
2022/10/18 09:56:30;;;;;;;8.98;5.63;;;;;;;;;;5112228;28;20035;-73
2022/10/18 09:58:56;;;;;;;19.23;6.30;;;;;;;;;;5103986;28;20028;-73
2022/10/18 10:01:27;;;;;;;24.52;7.43;;;;;;;;;;5105254;28;21143;-74
2022/10/18 10:03:53;;;;;;;11.98;5.43;;;;;;;;;;5094345;28;20032;-73
2022/10/18 10:06:37;;;;;;;14.48;5.90;;;;;;;;;;5099393;28;20028;-71
2022/10/18 10:09:13;;;;;;;14.00;6.43;;;;;;;;;;5106687;28;20050;-72
2022/10/18 10:11:47;;;;;;;13.57;5.88;;;;;;;;;;5110769;28;20016;-71
2022/10/18 10:14:15;;;;;;;25.20;15.70;;;;;;;;;;5106255;28;20030;-72
2022/10/18 10:16:58;;;;;;;24.70;11.23;;;;;;;;;;5109193;28;20073;-72
2022/10/18 10:19:24;;;;;;;15.35;6.60;;;;;;;;;;5107795;28;20028;-72
2022/10/18 10:21:52;;;;;;;12.75;6.20;;;;;;;;;;5100515;28;20077;-73
2022/10/18 10:24:28;;;;;;;13.02;5.80;;;;;;;;;;5089282;28;20045;-72
2022/10/18 10:26:58;;;;;;;11.60;4.50;;;;;;;;;;5094468;28;20016;-70
2022/10/18 10:29:47;;;;;;;15.30;7.50;;;;;;;;;;5097536;28;20065;-70
2022/10/18 10:32:14;;;;;;;9.30;4.60;;;;;;;;;;5096717;28;20031;-74
2022/10/18 10:34:40;;;;;;;10.85;5.10;;;;;;;;;;5101744;28;20465;-70
2022/10/18 10:37:25;;;;;;;12.30;4.85;;;;;;;;;;5100292;28;20032;-73
2022/10/18 10:40:06;;;;;;;15.68;8.57;;;;;;;;;;5097354;28;20020;-73
2022/10/18 10:42:33;;;;;;;10.63;5.30;;;;;;;;;;5106699;28;20042;-75
2022/10/18 10:45:01;;;;;;;10.98;4.55;;;;;;;;;;5092542;28;20020;-71
2022/10/18 10:47:29;;;;;;;15.70;4.88;;;;;;;;;;5092051;28;20070;-73
2022/10/18 10:49:56;;;;;;;7.05;5.15;;;;;;;;;;5087296;28;20043;-72
2022/10/18 10:52:27;;;;;;;11.68;5.90;;;;;;;;;;5078865;28;20047;-75
2022/10/18 10:54:54;;;;;;;11.05;4.82;;;;;;;;;;5094849;28;20028;-71
2022/10/18 10:57:25;;;;;;;15.10;6.05;;;;;;;;;;5093873;28;20027;-71
2022/10/18 10:59:53;;;;;;;9.65;5.43;;;;;;;;;;5099769;28;20107;-71
2022/10/18 11:02:22;;;;;;;10.63;4.82;;;;;;;;;;5100215;28;20038;-71
2022/10/18 11:04:49;;;;;;;12.57;5.00;;;;;;;;;;5103096;28;20028;-72
2022/10/18 11:07:28;;;;;;;9.93;5.13;;;;;;;;;;5103400;28;20047;-72
2022/10/18 11:09:57;;;;;;;12.95;5.40;;;;;;;;;;5100521;28;20051;-72
2022/10/18 11:12:23;;;;;;;12.25;6.28;;;;;;;;;;5114185;28;20140;-71
2022/10/18 11:14:56;;;;;;;11.45;5.95;;;;;;;;;;5113849;28;20112;-71
2022/10/18 11:17:35;;;;;;;9.25;5.30;;;;;;;;;;5105759;28;20028;-70
2022/10/18 11:20:01;;;;;;;12.27;6.47;;;;;;;;;;5098407;28;20039;-70
2022/10/18 11:22:29;;;;;;;12.07;5.95;;;;;;;;;;5093743;28;20458;-73
2022/10/18 11:24:55;;;;;;;27.25;6.65;;;;;;;;;;5114003;28;20103;-72
2022/10/18 11:27:21;;;;;;;12.85;5.35;;;;;;;;;;5100294;28;20027;-72
2022/10/18 11:29:50;;;;;;;13.18;5.40;;;;;;;;;;5107023;28;20030;-71
2022/10/18 11:32:31;;;;;;;10.75;5.35;;;;;;;;;;5093664;28;20073;-71
2022/10/18 11:35:11;;;;;;;17.30;6.10;;;;;;;;;;5099190;28;20616;-71
2022/10/18 11:37:37;;;;;;;11.55;6.65;;;;;;;;;;5101780;28;20090;-71
2022/10/18 11:40:03;;;;;;;15.35;8.43;;;;;;;;;;5101010;28;20020;-72
2022/10/18 11:42:37;;;;;;;10.35;6.13;;;;;;;;;;5101513;28;20027;-72
2022/10/18 11:45:22;;;;;;;10.18;5.65;;;;;;;;;;5077482;28;20394;-71
2022/10/18 11:47:53;;;;;;;16.52;5.60;;;;;;;;;;5083508;28;20111;-72
2022/10/18 11:50:25;;;;;;;11.40;5.72;;;;;;;;;;5091638;28;20039;-70
2022/10/18 11:52:51;;;;;;;11.18;5.10;;;;;;;;;;5093524;28;20116;-70
2022/10/18 11:55:32;;;;;;;7.72;5.25;;;;;;;;;;5091577;28;20081;-71
2022/10/18 11:58:06;;;;;;;10.60;5.53;;;;;;;;;;5082294;28;20376;-70
2022/10/18 12:00:48;;;;;;;10.98;5.40;;;;;;;;;;5090189;28;20061;-70
2022/10/18 12:03:33;;;;;;;12.30;5.97;;;;;;;;;;5091841;28;20042;-70
2022/10/18 12:06:01;;;;;;;10.38;5.35;;;;;;;;;;5093460;28;20024;-70
2022/10/18 12:08:30;;;;;;;13.98;5.30;;;;;;;;;;5099521;28;20040;-70
2022/10/18 12:10:59;;;;;;;9.68;5.35;;;;;;;;;;5105338;28;20024;-70
2022/10/18 12:13:33;;;;;;;9.10;5.68;;;;;;;;;;5090908;28;20028;-70
2022/10/18 12:16:00;;;;;;;12.80;5.18;;;;;;;;;;5084890;28;20102;-70
2022/10/18 12:18:26;;;;;;;11.82;5.05;;;;;;;;;;5113219;28;20039;-69
2022/10/18 12:20:56;;;;;;;13.38;5.05;;;;;;;;;;5092879;28;20430;-71
2022/10/18 12:23:22;;;;;;;14.32;4.78;;;;;;;;;;5090483;28;20035;-70
2022/10/18 12:25:51;;;;;;;11.63;5.15;;;;;;;;;;5091626;28;20046;-71
2022/10/18 12:28:17;;;;;;;8.07;4.72;;;;;;;;;;5106905;28;20107;-71
2022/10/18 12:30:52;;;;;;;12.05;5.13;;;;;;;;;;5095314;28;20020;-70
2022/10/18 12:33:21;;;;;;;26.95;15.90;;;;;;;;;;5089965;28;20107;-71
2022/10/18 12:36:06;;;;;;;19.02;8.50;;;;;;;;;;5089170;28;20040;-71
2022/10/18 12:38:37;;;;;;;8.40;5.03;;;;;;;;;;5089602;28;20491;-73
2022/10/18 12:41:04;;;;;;;9.55;5.18;;;;;;;;;;5088549;28;20051;-70
2022/10/18 12:43:37;;;;;;;12.15;4.80;;;;;;;;;;5097280;28;20052;-71
2022/10/18 12:46:05;;;;;;;9.90;4.60;;;;;;;;;;5101202;28;20023;-70
2022/10/18 12:48:34;;;;;;;15.60;5.63;;;;;;;;;;5096212;28;20388;-70
2022/10/18 12:51:04;;;;;;;10.25;5.22;;;;;;;;;;5087308;28;20018;-70
2022/10/18 12:53:31;;;;;;;18.67;5.43;;;;;;;;;;5095666;28;20491;-72
2022/10/18 12:56:17;;;;;;;10.82;5.18;;;;;;;;;;5094924;28;20016;-71
2022/10/18 12:58:43;;;;;;;9.63;5.20;;;;;;;;;;5090880;28;20050;-71
2022/10/18 13:01:09;;;;;;;13.98;6.20;;;;;;;;;;5096380;28;20395;-71
2022/10/18 13:03:39;;;;;;;16.58;5.53;;;;;;;;;;5096976;28;20085;-71
2022/10/18 13:06:05;;;;;;;9.32;5.18;;;;;;;;;;5081478;28;20047;-70
2022/10/18 13:08:38;;;;;;;10.10;5.72;;;;;;;;;;5089045;28;20091;-70
2022/10/18 13:11:10;;;;;;;17.07;5.90;;;;;;;;;;5096831;28;20069;-72
2022/10/18 13:13:44;;;;;;;14.07;5.70;;;;;;;;;;5092865;28;20349;-70
2022/10/18 13:16:21;;;;;;;10.73;5.43;;;;;;;;;;5094086;28;20024;-70
2022/10/18 13:18:58;;;;;;;10.45;5.65;;;;;;;;;;5091616;28;20068;-70
2022/10/18 13:21:39;;;;;;;19.70;5.25;;;;;;;;;;5098046;28;20063;-70
2022/10/18 13:24:08;;;;;;;12.88;5.28;;;;;;;;;;5099362;28;20027;-70
2022/10/18 13:26:46;;;;;;;12.95;6.93;;;;;;;;;;5095744;28;20077;-70
2022/10/18 13:29:24;;;;;;;13.55;5.65;;;;;;;;;;5096305;28;20028;-70
2022/10/18 13:32:09;;;;;;;37.88;6.55;;;;;;;;;;5096764;28;20024;-72
2022/10/18 13:34:37;;;;;;;10.75;5.15;;;;;;;;;;5099340;28;20051;-71
2022/10/18 13:37:09;;;;;;;11.57;5.60;;;;;;;;;;5093075;28;20032;-69
2022/10/18 13:39:36;;;;;;;13.02;5.47;;;;;;;;;;5091296;28;20388;-72
2022/10/18 13:42:02;;;;;;;17.33;6.00;;;;;;;;;;5100586;28;20036;-71
2022/10/18 13:44:36;;;;;;;9.63;4.88;;;;;;;;;;5092654;28;20016;-70
2022/10/18 13:47:02;;;;;;;9.15;5.20;;;;;;;;;;5098513;28;20020;-71
2022/10/18 13:49:31;;;;;;;11.88;4.93;;;;;;;;;;5094682;28;20016;-69
2022/10/18 13:52:16;;;;;;;11.75;4.93;;;;;;;;;;5097729;28;20020;-70
2022/10/18 13:55:00;;;;;;;11.18;4.95;;;;;;;;;;5092109;28;20039;-71
2022/10/18 13:57:35;;;;;;;15.02;6.30;;;;;;;;;;5095674;28;20047;-70
2022/10/18 14:00:11;;;;;;;14.23;5.60;;;;;;;;;;5094333;28;20026;-71
2022/10/18 14:02:45;;;;;;;14.10;5.72;;;;;;;;;;5077650;28;20035;-74
2022/10/18 14:05:31;;;;;;;17.15;7.10;;;;;;;;;;5100282;28;20031;-71
2022/10/18 14:08:10;;;;;;;15.98;7.70;;;;;;;;;;5086345;28;20408;-72
2022/10/18 14:10:40;;;;;;;14.52;6.90;;;;;;;;;;5100140;28;20114;-71
2022/10/18 14:13:07;;;;;;;10.65;6.28;;;;;;;;;;5096894;28;20439;-74
2022/10/18 14:15:36;;;;;;;11.90;6.05;;;;;;;;;;5093973;28;20024;-71
2022/10/18 14:18:02;;;;;;;9.10;5.63;;;;;;;;;;5074664;28;20020;-73
2022/10/18 14:20:32;;;;;;;12.23;6.03;;;;;;;;;;5089286;28;20111;-70
2022/10/18 14:23:18;;;;;;;18.92;5.70;;;;;;;;;;5096532;28;20160;-73
2022/10/18 14:25:44;;;;;;;13.10;6.00;;;;;;;;;;5092803;28;20098;-71
2022/10/18 14:28:15;;;;;;;15.30;6.88;;;;;;;;;;5091234;28;20077;-71
2022/10/18 14:30:54;;;;;;;15.63;6.25;;;;;;;;;;5094036;28;20480;-71
2022/10/18 14:33:40;;;;;;;19.45;6.63;;;;;;;;;;5093421;28;20356;-71
2022/10/18 14:36:14;;;;;;;18.73;6.63;;;;;;;;;;5094987;28;20431;-72
2022/10/18 14:38:48;;;;;;;12.07;5.25;;;;;;;;;;5098705;28;20491;-70
2022/10/18 14:41:20;;;;;;;13.15;5.93;;;;;;;;;;5096692;28;20044;-71
2022/10/18 14:43:47;;;;;;;10.10;5.28;;;;;;;;;;5094924;28;20107;-73
2022/10/18 14:46:16;;;;;;;21.48;5.80;;;;;;;;;;5082907;28;20036;-70